createdAt,value
2022-08-01T00:01:08.276Z,18.57
2022-08-01T00:03:41.709Z,18.56
2022-08-01T00:06:14.715Z,18.58
2022-08-01T00:08:47.825Z,18.56
2022-08-01T00:11:21.124Z,18.53
2022-08-01T00:13:54.515Z,18.52
2022-08-01T00:16:27.540Z,18.51
2022-08-01T00:19:00.580Z,18.53
2022-08-01T00:21:33.674Z,18.51
2022-08-01T00:24:07.303Z,18.47
2022-08-01T00:26:47.656Z,18.45
2022-08-01T00:30:10.002Z,18.44
2022-08-01T00:32:13.544Z,18.42
2022-08-01T00:34:46.710Z,18.40
2022-08-01T00:37:20.063Z,18.39
2022-08-01T00:39:53.050Z,18.39
2022-08-01T00:42:25.908Z,18.38
2022-08-01T00:44:59.035Z,18.38
2022-08-01T00:47:32.142Z,18.41
2022-08-01T00:50:06.066Z,18.41
2022-08-01T00:52:41.436Z,18.40
2022-08-01T00:55:16.203Z,18.39
2022-08-01T00:58:03.454Z,18.36
2022-08-01T01:00:52.163Z,18.33
2022-08-01T01:03:57.700Z,18.31
2022-08-01T01:06:32.095Z,18.30
2022-08-01T01:09:20.233Z,18.29
2022-08-01T01:12:04.588Z,18.28
2022-08-01T01:14:46.304Z,18.27
2022-08-01T01:17:49.598Z,18.27
2022-08-01T01:20:18.948Z,18.25
2022-08-01T01:23:08.984Z,18.24
2022-08-01T01:26:13.058Z,18.22
2022-08-01T01:29:08.796Z,18.16
2022-08-01T01:31:50.595Z,18.13
2022-08-01T01:34:26.254Z,18.09
2022-08-01T01:37:02.148Z,18.07
2022-08-01T01:39:37.665Z,18.05
2022-08-01T01:42:11.264Z,18.05
2022-08-01T01:44:48.696Z,18.02
2022-08-01T01:47:22.907Z,18.00
2022-08-01T01:49:58.188Z,17.97
2022-08-01T01:52:32.715Z,17.93
2022-08-01T01:55:08.399Z,17.90
2022-08-01T01:57:44.053Z,17.87
2022-08-01T02:00:19.133Z,17.85
2022-08-01T02:02:54.352Z,17.83
2022-08-01T02:05:31.296Z,17.81
2022-08-01T02:08:06.583Z,17.83
2022-08-01T02:10:41.838Z,17.80
2022-08-01T02:13:15.101Z,17.77
2022-08-01T02:15:59.724Z,17.74
2022-08-01T02:18:34.389Z,17.71
2022-08-01T02:21:11.130Z,17.67
2022-08-01T02:23:44.979Z,17.65
2022-08-01T02:26:20.581Z,17.61
2022-08-01T02:28:58.942Z,17.58
2022-08-01T02:31:41.148Z,17.56
2022-08-01T02:34:15.873Z,17.52
2022-08-01T02:36:51.054Z,17.49
2022-08-01T02:39:29.100Z,17.46
2022-08-01T02:42:07.774Z,17.44
2022-08-01T02:44:44.884Z,17.41
2022-08-01T02:47:22.422Z,17.39
2022-08-01T02:49:58.148Z,17.35
2022-08-01T02:52:33.535Z,17.33
2022-08-01T02:55:08.126Z,17.33
2022-08-01T02:57:51.556Z,17.34
2022-08-01T03:00:27.664Z,17.34
2022-08-01T03:03:02.319Z,17.33
2022-08-01T03:05:37.582Z,17.31
2022-08-01T03:08:14.728Z,17.28
2022-08-01T03:10:50.394Z,17.23
2022-08-01T03:13:25.990Z,17.22
2022-08-01T03:16:01.727Z,17.20
2022-08-01T03:18:36.701Z,17.22
2022-08-01T03:21:14.664Z,17.21
2022-08-01T03:23:54.948Z,17.23
2022-08-01T03:26:31.378Z,17.22
2022-08-01T03:29:08.975Z,17.21
2022-08-01T03:31:44.756Z,17.22
2022-08-01T03:34:18.140Z,17.23
2022-08-01T03:36:55.660Z,17.25
2022-08-01T03:39:34.093Z,17.23
2022-08-01T03:42:14.955Z,17.22
2022-08-01T03:44:56.027Z,17.25
2022-08-01T03:47:33.972Z,17.25
2022-08-01T03:50:16.187Z,17.28
2022-08-01T03:52:52.550Z,17.30
2022-08-01T03:55:27.037Z,17.32
2022-08-01T03:58:03.551Z,17.32
2022-08-01T04:00:41.185Z,17.31
2022-08-01T04:03:15.518Z,17.30
2022-08-01T04:05:48.707Z,17.32
2022-08-01T04:08:21.822Z,17.33
2022-08-01T04:11:02.619Z,17.33
2022-08-01T04:13:37.084Z,17.33
2022-08-01T04:16:10.823Z,17.32
2022-08-01T04:18:44.157Z,17.34
2022-08-01T04:21:20.269Z,17.38
2022-08-01T04:23:55.797Z,17.40
2022-08-01T04:26:30.089Z,17.40
2022-08-01T04:29:06.808Z,17.42
2022-08-01T04:31:43.358Z,17.43
2022-08-01T04:34:19.416Z,17.44
2022-08-01T04:36:54.125Z,17.43
2022-08-01T04:39:29.576Z,17.44
2022-08-01T04:42:05.319Z,17.47
2022-08-01T04:44:39.146Z,17.48
2022-08-01T04:47:14.544Z,17.49
2022-08-01T04:49:49.041Z,17.52
2022-08-01T04:52:24.920Z,17.59
2022-08-01T04:54:58.297Z,17.64
2022-08-01T04:57:32.186Z,17.63
2022-08-01T05:00:06.013Z,17.62
2022-08-01T05:02:39.704Z,17.62
2022-08-01T05:05:13.625Z,17.64
2022-08-01T05:07:46.894Z,17.64
2022-08-01T05:10:20.290Z,17.62
2022-08-01T05:12:53.355Z,17.63
2022-08-01T05:15:26.703Z,17.60
2022-08-01T05:17:59.913Z,17.60
2022-08-01T05:20:33.197Z,17.61
2022-08-01T05:23:06.399Z,17.62
2022-08-01T05:25:57.713Z,17.68
2022-08-01T05:28:31.363Z,17.79
2022-08-01T05:31:05.030Z,17.81
2022-08-01T05:33:38.231Z,17.71
2022-08-01T05:36:11.956Z,17.71
2022-08-01T05:38:45.565Z,17.78
2022-08-01T05:41:18.680Z,17.93
2022-08-01T05:43:51.830Z,18.17
2022-08-01T05:46:26.112Z,18.27
2022-08-01T05:48:59.843Z,18.33
2022-08-01T05:51:33.803Z,18.50
2022-08-01T05:54:07.372Z,18.79
2022-08-01T05:56:40.528Z,18.87
2022-08-01T05:59:13.580Z,18.91
2022-08-01T06:01:46.873Z,18.94
2022-08-01T06:04:19.901Z,19.00
2022-08-01T06:06:53.213Z,19.07
2022-08-01T06:09:26.342Z,19.29
2022-08-01T06:11:59.312Z,19.80
2022-08-01T06:14:32.465Z,20.29
2022-08-01T06:17:05.629Z,20.66
2022-08-01T06:19:39.113Z,20.86
2022-08-01T06:22:12.640Z,21.08
2022-08-01T06:24:45.813Z,21.40
2022-08-01T06:27:22.014Z,21.44
2022-08-01T06:29:56.108Z,21.42
2022-08-01T06:32:30.348Z,21.41
2022-08-01T06:35:04.107Z,21.41
2022-08-01T06:37:37.475Z,21.49
2022-08-01T06:40:16.949Z,21.48
2022-08-01T06:42:50.628Z,21.53
2022-08-01T06:45:26.061Z,21.83
2022-08-01T06:47:59.477Z,22.20
2022-08-01T06:50:32.615Z,22.46
2022-08-01T06:53:06.442Z,22.98
2022-08-01T06:55:40.120Z,23.53
2022-08-01T06:58:13.093Z,23.91
2022-08-01T07:00:46.470Z,24.67
2022-08-01T07:03:19.566Z,25.37
2022-08-01T07:05:52.765Z,25.78
2022-08-01T07:08:25.729Z,25.83
2022-08-01T07:11:01.054Z,26.21
2022-08-01T07:13:43.807Z,27.31
2022-08-01T07:16:18.428Z,28.72
2022-08-01T07:18:51.568Z,30.20
2022-08-01T07:21:38.603Z,30.92
2022-08-01T07:24:16.434Z,32.11
2022-08-01T07:26:55.504Z,32.70
2022-08-01T07:29:29.304Z,32.11
2022-08-01T07:32:03.349Z,31.18
2022-08-01T07:34:37.002Z,30.33
2022-08-01T07:37:10.145Z,29.53
2022-08-01T07:39:43.240Z,28.75
2022-08-01T07:42:16.546Z,28.03
2022-08-01T07:44:49.853Z,27.50
2022-08-01T07:47:28.210Z,27.04
2022-08-01T07:50:02.995Z,26.62
2022-08-01T07:52:36.695Z,26.27
2022-08-01T07:55:16.605Z,26.01
2022-08-01T07:57:50.665Z,25.80
2022-08-01T08:00:23.946Z,25.61
2022-08-01T08:03:00.191Z,25.47
2022-08-01T08:05:58.698Z,25.31
2022-08-01T08:08:27.379Z,25.15
2022-08-01T08:11:00.500Z,25.07
2022-08-01T08:13:33.846Z,24.98
2022-08-01T08:16:07.363Z,24.91
2022-08-01T08:18:40.751Z,24.72
2022-08-01T08:21:13.770Z,24.55
2022-08-01T08:24:04.978Z,24.33
2022-08-01T08:26:39.160Z,24.21
2022-08-01T08:29:16.693Z,24.19
2022-08-01T08:31:52.153Z,24.09
2022-08-01T08:34:26.632Z,24.05
2022-08-01T08:37:01.112Z,24.08
2022-08-01T08:39:41.783Z,24.09
2022-08-01T08:42:15.942Z,24.09
2022-08-01T08:44:49.291Z,23.96
2022-08-01T08:47:23.946Z,23.93
2022-08-01T08:49:58.749Z,23.97
2022-08-01T08:52:34.658Z,23.85
2022-08-01T08:55:09.580Z,23.87
2022-08-01T08:57:46.022Z,23.94
2022-08-01T09:00:20.184Z,23.97
2022-08-01T09:02:57.124Z,23.94
2022-08-01T09:05:39.118Z,24.05
2022-08-01T09:08:12.783Z,24.18
2022-08-01T09:10:46.009Z,24.25
2022-08-01T09:13:19.533Z,24.48
2022-08-01T09:15:55.346Z,24.63
2022-08-01T09:18:35.239Z,24.63
2022-08-01T09:21:18.423Z,24.60
2022-08-01T09:23:54.963Z,24.69
2022-08-01T09:26:36.548Z,24.78
2022-08-01T09:29:36.347Z,24.83
2022-08-01T09:32:16.135Z,24.81
2022-08-01T09:34:49.885Z,24.74
2022-08-01T09:37:37.311Z,24.74
2022-08-01T09:40:13.379Z,24.68
2022-08-01T09:42:50.149Z,24.65
2022-08-01T09:45:41.896Z,24.64
2022-08-01T09:48:19.389Z,24.56
2022-08-01T09:50:54.433Z,24.58
2022-08-01T09:53:30.793Z,24.62
2022-08-01T09:56:15.256Z,24.68
2022-08-01T09:59:02.097Z,24.71
2022-08-01T10:01:47.916Z,24.77
2022-08-01T10:04:23.987Z,25.27
2022-08-01T10:07:09.728Z,26.96
2022-08-01T10:09:43.584Z,28.69
2022-08-01T10:12:19.841Z,30.49
2022-08-01T10:14:56.851Z,32.50
2022-08-01T10:17:49.939Z,34.40
2022-08-01T10:20:30.238Z,35.21
2022-08-01T10:23:06.972Z,35.51
2022-08-01T10:25:46.780Z,35.45
2022-08-01T10:28:24.136Z,34.38
2022-08-01T10:30:59.820Z,33.34
2022-08-01T10:33:51.365Z,32.33
2022-08-01T10:36:27.057Z,31.33
2022-08-01T10:39:03.492Z,30.83
2022-08-01T10:41:38.164Z,30.45
2022-08-01T10:44:13.300Z,30.03
2022-08-01T10:46:52.423Z,29.74
2022-08-01T10:49:31.995Z,29.36
2022-08-01T10:52:05.471Z,29.22
2022-08-01T10:54:51.948Z,29.47
2022-08-01T10:57:27.525Z,29.91
2022-08-01T11:00:05.139Z,29.63
2022-08-01T11:02:45.616Z,29.12
2022-08-01T11:05:25.964Z,28.70
2022-08-01T11:08:05.887Z,28.50
2022-08-01T11:10:41.782Z,28.31
2022-08-01T11:13:18.029Z,28.23
2022-08-01T11:15:51.445Z,28.42
2022-08-01T11:18:37.629Z,29.00
2022-08-01T11:21:59.028Z,29.99
2022-08-01T11:24:04.672Z,30.68
2022-08-01T11:26:38.062Z,30.64
2022-08-01T11:29:22.895Z,30.20
2022-08-01T11:32:28.204Z,29.82
2022-08-01T11:35:01.826Z,29.53
2022-08-01T11:37:35.380Z,29.35
2022-08-01T11:40:25.198Z,29.14
2022-08-01T11:43:21.293Z,28.97
2022-08-01T11:45:56.774Z,28.87
2022-08-01T11:48:31.291Z,28.68
2022-08-01T11:51:04.461Z,28.43
2022-08-01T11:53:38.775Z,28.21
2022-08-01T11:56:15.557Z,28.05
2022-08-01T11:58:51.581Z,27.95
2022-08-01T12:01:25.121Z,27.90
2022-08-01T12:04:01.428Z,27.88
2022-08-01T12:06:35.481Z,27.92
2022-08-01T12:09:22.026Z,28.01
2022-08-01T12:11:56.792Z,28.33
2022-08-01T12:14:29.953Z,28.38
2022-08-01T12:17:03.662Z,28.31
2022-08-01T12:19:38.462Z,28.18
2022-08-01T12:22:13.978Z,28.16
2022-08-01T12:24:48.060Z,28.45
2022-08-01T12:27:30.997Z,28.58
2022-08-01T12:30:07.278Z,28.56
2022-08-01T12:32:41.484Z,28.41
2022-08-01T12:35:18.549Z,28.38
2022-08-01T12:37:53.519Z,28.31
2022-08-01T12:40:29.073Z,28.10
2022-08-01T12:43:05.197Z,28.00
2022-08-01T12:45:56.366Z,27.98
2022-08-01T12:48:33.333Z,28.00
2022-08-01T12:51:10.514Z,28.11
2022-08-01T12:53:43.858Z,28.08
2022-08-01T12:56:17.020Z,28.07
2022-08-01T12:58:50.121Z,28.13
2022-08-01T13:01:30.621Z,28.15
2022-08-01T13:04:05.866Z,28.12
2022-08-01T13:06:39.675Z,28.13
2022-08-01T13:09:14.784Z,28.16
2022-08-01T13:11:53.991Z,28.19
2022-08-01T13:14:41.869Z,28.17
2022-08-01T13:17:31.988Z,28.16
2022-08-01T13:20:05.352Z,28.14
2022-08-01T13:22:39.793Z,28.11
2022-08-01T13:25:22.631Z,28.08
2022-08-01T13:28:18.905Z,28.02
2022-08-01T13:31:01.995Z,28.00
2022-08-01T13:33:55.328Z,27.92
2022-08-01T13:36:33.774Z,27.86
2022-08-01T13:39:25.300Z,27.83
2022-08-01T13:41:58.465Z,27.85
2022-08-01T13:44:31.904Z,27.83
2022-08-01T13:47:14.960Z,27.85
2022-08-01T13:49:49.934Z,27.90
2022-08-01T13:52:23.266Z,27.93
2022-08-01T13:54:56.754Z,27.98
2022-08-01T13:57:36.866Z,28.00
2022-08-01T14:00:13.493Z,28.02
2022-08-01T14:02:47.197Z,28.07
2022-08-01T14:05:20.913Z,28.05
2022-08-01T14:07:56.453Z,27.95
2022-08-01T14:10:30.062Z,27.97
2022-08-01T14:13:03.812Z,27.99
2022-08-01T14:15:39.990Z,27.98
2022-08-01T14:18:14.321Z,27.87
2022-08-01T14:20:49.323Z,27.72
2022-08-01T14:23:24.023Z,27.59
2022-08-01T14:26:02.624Z,27.52
2022-08-01T14:28:39.984Z,27.43
2022-08-01T14:31:13.164Z,27.33
2022-08-01T14:33:46.546Z,27.25
2022-08-01T14:36:29.247Z,27.18
2022-08-01T14:39:04.365Z,27.15
2022-08-01T14:41:37.635Z,27.18
2022-08-01T14:44:10.891Z,27.22
2022-08-01T14:46:57.994Z,27.18
2022-08-01T14:49:32.720Z,27.16
2022-08-01T14:52:06.374Z,27.18
2022-08-01T14:54:40.293Z,27.24
2022-08-01T14:57:13.629Z,27.24
2022-08-01T14:59:46.727Z,27.21
2022-08-01T15:02:20.138Z,27.17
2022-08-01T15:04:54.906Z,27.14
2022-08-01T15:07:27.977Z,27.18
2022-08-01T15:10:01.221Z,27.22
2022-08-01T15:12:49.526Z,27.22
2022-08-01T15:15:23.917Z,27.19
2022-08-01T15:17:56.961Z,27.20
2022-08-01T15:20:30.383Z,27.22
2022-08-01T15:23:03.632Z,27.20
2022-08-01T15:25:40.445Z,27.15
2022-08-01T15:28:15.886Z,27.10
2022-08-01T15:30:49.273Z,27.04
2022-08-01T15:33:23.056Z,26.95
2022-08-01T15:35:56.492Z,26.90
2022-08-01T15:38:31.073Z,26.85
2022-08-01T15:41:04.483Z,26.77
2022-08-01T15:43:43.185Z,26.72
2022-08-01T15:46:18.607Z,26.69
2022-08-01T15:48:51.929Z,26.69
2022-08-01T15:51:25.311Z,26.69
2022-08-01T15:53:59.222Z,26.68
2022-08-01T15:56:33.117Z,26.64
2022-08-01T15:59:07.022Z,26.60
2022-08-01T16:01:40.913Z,26.56
2022-08-01T16:04:14.769Z,26.54
2022-08-01T16:06:49.652Z,26.51
2022-08-01T16:09:24.215Z,26.49
2022-08-01T16:11:58.292Z,26.45
2022-08-01T16:14:31.748Z,26.43
2022-08-01T16:17:04.994Z,26.42
2022-08-01T16:19:38.421Z,26.40
2022-08-01T16:22:11.856Z,26.38
2022-08-01T16:24:45.130Z,26.37
2022-08-01T16:27:19.122Z,26.33
2022-08-01T16:29:52.566Z,26.31
2022-08-01T16:32:30.688Z,26.28
2022-08-01T16:35:09.828Z,26.24
2022-08-01T16:37:43.398Z,26.22
2022-08-01T16:40:17.291Z,26.20
2022-08-01T16:42:51.120Z,26.18
2022-08-01T16:45:24.432Z,26.16
2022-08-01T16:47:58.004Z,26.13
2022-08-01T16:50:31.737Z,26.11
2022-08-01T16:53:04.993Z,26.09
2022-08-01T16:55:49.738Z,26.07
2022-08-01T16:58:28.043Z,26.05
2022-08-01T17:01:59.616Z,26.02
2022-08-01T17:03:59.430Z,25.96
2022-08-01T17:06:34.853Z,25.93
2022-08-01T17:09:09.656Z,25.91
2022-08-01T17:11:43.405Z,25.89
2022-08-01T17:14:18.269Z,25.83
2022-08-01T17:16:51.833Z,25.80
2022-08-01T17:19:32.519Z,25.76
2022-08-01T17:22:06.532Z,25.72
2022-08-01T17:24:40.277Z,25.70
2022-08-01T17:27:13.982Z,25.68
2022-08-01T17:29:47.382Z,25.65
2022-08-01T17:32:20.804Z,25.61
2022-08-01T17:34:54.464Z,25.58
2022-08-01T17:37:27.893Z,25.55
2022-08-01T17:40:06.371Z,25.53
2022-08-01T17:42:56.382Z,25.49
2022-08-01T17:45:29.611Z,25.45
2022-08-01T17:48:03.176Z,25.42
2022-08-01T17:50:36.814Z,25.39
2022-08-01T17:53:10.949Z,25.35
2022-08-01T17:55:55.891Z,25.30
2022-08-01T17:58:50.126Z,25.26
2022-08-01T18:01:27.393Z,25.22
2022-08-01T18:04:04.050Z,25.18
2022-08-01T18:06:37.659Z,25.13
2022-08-01T18:09:12.393Z,25.08
2022-08-01T18:11:47.760Z,25.04
2022-08-01T18:14:34.740Z,24.97
2022-08-01T18:17:15.688Z,24.95
2022-08-01T18:19:49.192Z,24.92
2022-08-01T18:22:32.813Z,24.88
2022-08-01T18:25:09.104Z,24.84
2022-08-01T18:28:19.661Z,24.81
2022-08-01T18:30:36.345Z,24.77
2022-08-01T18:33:09.938Z,24.73
2022-08-01T18:35:52.393Z,24.71
2022-08-01T18:38:28.148Z,24.70
2022-08-01T18:41:02.095Z,24.69
2022-08-01T18:43:36.772Z,24.69
2022-08-01T18:46:11.017Z,24.69
2022-08-01T18:48:44.671Z,24.68
2022-08-01T18:51:18.343Z,24.64
2022-08-01T18:53:52.803Z,24.61
2022-08-01T18:56:26.117Z,24.59
2022-08-01T18:58:59.530Z,24.57
2022-08-01T19:01:32.947Z,24.52
2022-08-01T19:04:06.638Z,24.48
2022-08-01T19:06:40.697Z,24.45
2022-08-01T19:09:14.410Z,24.42
2022-08-01T19:11:54.640Z,24.42
2022-08-01T19:14:28.254Z,24.42
2022-08-01T19:17:01.360Z,24.39
2022-08-01T19:19:36.984Z,24.36
2022-08-01T19:22:12.014Z,24.33
2022-08-01T19:24:45.249Z,24.30
2022-08-01T19:27:20.275Z,24.28
2022-08-01T19:29:56.712Z,24.27
2022-08-01T19:32:33.318Z,24.26
2022-08-01T19:35:11.628Z,24.21
2022-08-01T19:37:47.428Z,24.18
2022-08-01T19:40:26.865Z,24.16
2022-08-01T19:43:03.279Z,24.13
2022-08-01T19:45:37.534Z,24.12
2022-08-01T19:48:13.306Z,24.13
2022-08-01T19:50:48.001Z,24.10
2022-08-01T19:53:24.372Z,24.08
2022-08-01T19:55:58.262Z,24.08
2022-08-01T19:58:32.394Z,24.06
2022-08-01T20:01:06.712Z,24.03
2022-08-01T20:03:42.712Z,24.01
2022-08-01T20:06:16.450Z,23.98
2022-08-01T20:08:50.496Z,23.94
2022-08-01T20:11:25.046Z,23.89
2022-08-01T20:14:01.043Z,23.87
2022-08-01T20:16:34.636Z,23.86
2022-08-01T20:19:10.450Z,23.85
2022-08-01T20:22:03.386Z,23.84
2022-08-01T20:24:43.493Z,23.83
2022-08-01T20:27:18.884Z,23.82
2022-08-01T20:29:54.537Z,23.82
2022-08-01T20:32:34.339Z,23.83
2022-08-01T20:35:09.601Z,23.80
2022-08-01T20:38:04.039Z,23.75
2022-08-01T20:40:39.044Z,23.74
2022-08-01T20:43:14.310Z,23.72
2022-08-01T20:45:48.981Z,23.72
2022-08-01T20:48:23.767Z,23.72
2022-08-01T20:51:14.975Z,23.73
2022-08-01T20:53:52.911Z,23.71
2022-08-01T20:56:40.758Z,23.70
2022-08-01T20:59:54.923Z,23.69
2022-08-01T21:02:33.130Z,23.69
2022-08-01T21:05:07.757Z,23.67
2022-08-01T21:07:48.431Z,23.66
2022-08-01T21:10:30.368Z,23.64
2022-08-01T21:13:06.596Z,23.64
2022-08-01T21:16:22.185Z,23.65
2022-08-01T21:18:49.366Z,23.67
2022-08-01T21:21:36.058Z,23.65
2022-08-01T21:24:12.088Z,23.66
2022-08-01T21:26:47.673Z,23.65
2022-08-01T21:29:22.709Z,23.60
2022-08-01T21:32:11.723Z,23.57
2022-08-01T21:34:49.203Z,23.58
2022-08-01T21:37:23.525Z,23.58
2022-08-01T21:39:59.492Z,23.56
2022-08-01T21:42:37.214Z,23.53
2022-08-01T21:45:11.799Z,23.49
2022-08-01T21:47:46.385Z,23.51
2022-08-01T21:50:19.977Z,23.49
2022-08-01T21:53:05.241Z,23.49
2022-08-01T21:55:51.614Z,23.47
2022-08-01T21:58:40.173Z,23.44
2022-08-01T22:01:20.117Z,23.41
2022-08-01T22:03:58.056Z,23.38
2022-08-01T22:06:34.389Z,23.34
2022-08-01T22:09:09.999Z,23.31
2022-08-01T22:11:58.877Z,23.29
2022-08-01T22:14:40.597Z,23.27
2022-08-01T22:17:21.200Z,23.29
2022-08-01T22:19:55.460Z,23.31
2022-08-01T22:22:51.755Z,23.31
2022-08-01T22:25:25.131Z,23.33
2022-08-01T22:28:05.683Z,23.32
2022-08-01T22:30:45.372Z,23.32
2022-08-01T22:33:19.603Z,23.31
2022-08-01T22:35:54.251Z,23.30
2022-08-01T22:38:27.933Z,23.28
2022-08-01T22:41:05.416Z,23.26
2022-08-01T22:43:48.638Z,23.27
2022-08-01T22:46:37.212Z,23.28
2022-08-01T22:49:25.725Z,23.29
2022-08-01T22:52:06.355Z,23.28
2022-08-01T22:54:46.370Z,23.24
2022-08-01T22:57:26.112Z,23.24
2022-08-01T23:00:03.747Z,23.21
2022-08-01T23:02:42.092Z,23.17
2022-08-01T23:05:16.865Z,23.16
2022-08-01T23:07:54.644Z,23.16
2022-08-01T23:10:28.406Z,23.15
2022-08-01T23:13:04.971Z,23.14
2022-08-01T23:15:39.234Z,23.11
2022-08-01T23:18:14.373Z,23.07
2022-08-01T23:20:48.565Z,23.04
2022-08-01T23:23:30.975Z,23.06
2022-08-01T23:26:05.093Z,23.08
2022-08-01T23:28:41.995Z,23.07
2022-08-01T23:31:16.142Z,23.04
2022-08-01T23:33:49.485Z,23.01
2022-08-01T23:36:23.332Z,23.01
2022-08-01T23:38:56.889Z,23.00
2022-08-01T23:41:30.418Z,23.00
2022-08-01T23:44:10.503Z,22.98
2022-08-01T23:46:44.151Z,22.96
2022-08-01T23:49:18.125Z,22.97
2022-08-01T23:51:52.067Z,22.97
2022-08-01T23:54:26.060Z,22.96
2022-08-01T23:57:00.149Z,22.93
2022-08-01T23:59:52.894Z,22.92
